Terminal Aerodrome Forecast
Issued by NWS Kansas City/Pleasant Hill, MO

Home | Current Version | Previous Version | Graphics & Text | Print | Product List | Glossary On
Versions: 1 2 3 4 5 6 7 8 9 10 11 12 13 14 15 16 17 18 19 20 21 22
000
FTUS43 KEAX 282043 CCA
TAFMCI
TAF COR
KMCI 282043Z 2821/2918 02009KT 6SM BR OVC004
      TEMPO 2821/2823 4SM BR BKN002
     FM290000 04010KT P6SM BKN008
     FM291100 05014KT 5SM -RA OVC007=

USA.gov is the U.S. government's official web portal to all federal, state and local government web resources and services.